EDT,Max TemperatureF,Mean TemperatureF,Min TemperatureF,Max Dew PointF,MeanDew PointF,Min DewpointF,Max Humidity, Mean Humidity, Min Humidity, Max Sea Level PressureIn, Mean Sea Level PressureIn, Min Sea Level PressureIn, Max VisibilityMiles, Mean VisibilityMiles, Min VisibilityMiles, Max Wind SpeedMPH, Mean Wind SpeedMPH, Max Gust SpeedMPH,PrecipitationIn, CloudCover, Events, WindDirDegrees
2011-10-1,53,50,48,48,43,36,94,75,54,30.07,30.01,29.87,10,7,2,16,13,23,0.00,8,Rain,24
2011-10-2,53,48,44,45,39,34,93,72,47,30.04,30.01,29.96,20,9,2,21,15,32,0.00,7,Rain,20
2011-10-3,57,55,53,54,53,52,94,92,88,30.16,30.08,30.01,7,5,2,16,9,,0.00,8,Rain,8
2011-10-4,64,60,51,55,51,46,88,72,59,30.27,30.24,30.19,20,12,7,12,9,,0.00,3,,302
2011-10-5,69,60,50,54,50,46,94,72,43,30.30,30.28,30.27,20,16,10,9,6,,0.00,1,,281
2011-10-6,75,66,57,63,54,50,94,68,44,30.36,30.32,30.10,20,15,10,12,7,,0.00,0,,90
2011-10-7,75,64,53,59,56,50,94,73,50,30.44,30.41,30.38,15,11,7,8,5,,0.00,0,,109
2011-10-8,80,68,57,59,55,52,82,64,39,30.46,30.42,30.38,20,14,10,14,9,,0.00,0,,167
2011-10-9,77,68,59,61,56,52,88,65,44,30.45,30.39,30.34,20,13,10,9,5,,0.00,1,,70
2011-10-10,78,66,55,57,54,50,88,64,36,30.34,30.26,30.19,10,10,10,7,6,,0.00,5,,115
2011-10-11,78,70,62,59,54,50,78,58,36,30.15,30.10,30.04,20,11,10,17,8,,0.00,6,,145
2011-10-12,64,60,57,59,57,55,100,91,73,30.00,29.89,29.79,15,6,2,12,8,,0.00,8,,140
2011-10-13,69,64,59,61,57,54,100,78,56,29.71,29.62,29.45,20,10,2,9,7,,0.00,7,Rain,159
2011-10-14,60,58,55,57,46,39,94,65,48,29.56,29.49,29.39,20,14,5,21,16,37,0.00,7,Rain,266
2011-10-15,59,52,46,46,40,36,87,58,42,29.83,29.68,29.54,10,9,4,25,18,34,0.00,7,Rain,277
2011-10-16,57,52,48,52,46,37,88,75,54,29.88,29.77,29.68,7,6,5,15,12,24,0.00,7,Rain,251
2011-10-17,64,54,44,37,32,23,76,44,22,29.81,29.78,29.73,20,11,10,18,15,29,0.00,2,,253
2011-10-18,55,52,50,46,41,36,87,67,54,29.86,29.81,29.76,10,9,5,12,8,,0.00,7,Rain-Thunderstorm,179
2011-10-19,60,55,51,59,53,48,100,90,77,29.58,29.39,29.16,10,5,2,15,10,24,0.00,8,Rain,74
2011-10-20,48,46,44,46,42,39,93,84,71,29.61,29.32,29.19,20,8,2,21,17,30,0.00,8,Rain,217
2011-10-21,50,48,46,45,42,37,93,80,66,30.07,29.98,29.83,15,9,5,16,14,24,0.00,8,Rain,263
2011-10-22,53,50,46,43,40,37,82,72,58,30.13,30.11,30.09,20,13,10,12,8,,0.00,5,,237
2011-10-23,64,52,41,41,39,36,81,56,40,30.09,30.03,29.99,20,12,10,14,9,,0.00,4,,194
2011-10-24,57,54,50,52,46,37,88,74,58,30.07,30.00,29.94,10,10,10,18,12,,0.00,5,,259
2011-10-25,68,52,37,39,37,36,54,41,32,30.19,30.07,29.92,10,10,10,18,10,,0.00,5,,207
2011-10-26,66,58,51,54,51,50,94,80,64,29.83,29.80,29.77,15,7,2,14,10,,0.00,8,Rain,276
2011-10-27,46,44,41,45,39,34,93,81,70,30.10,29.92,29.81,15,8,4,14,9,,0.00,7,Rain,18
2011-10-28,48,40,33,41,34,32,93,74,57,30.23,30.17,30.14,20,11,7,10,8,,0.00,7,,157
2011-10-29,50,42,33,36,34,32,93,75,54,30.12,30.08,30.04,20,15,10,9,7,,0.00,4,,127
2011-10-30,53,43,33,37,35,32,93,65,47,30.26,30.21,30.19,20,11,5,14,9,21,0.00,5,,190
2011-10-31,55,48,41,41,37,34,81,71,47,30.19,30.13,30.07,10,8,6,17,12,,0.00,6,,183